createdAt,value
2019-04-11T00:00:33.278Z,10.20
2019-04-11T00:03:03.006Z,10.10
2019-04-11T00:05:31.717Z,10.10
2019-04-11T00:08:01.702Z,10.10
2019-04-11T00:10:31.258Z,10.10
2019-04-11T00:13:01.120Z,10.00
2019-04-11T00:15:30.692Z,10.00
2019-04-11T00:17:59.277Z,9.90
2019-04-11T00:20:32.065Z,9.90
2019-04-11T00:23:01.697Z,9.90
2019-04-11T00:25:31.592Z,9.90
2019-04-11T00:28:01.451Z,9.90
2019-04-11T00:30:30.377Z,9.90
2019-04-11T00:33:00.086Z,9.90
2019-04-11T00:35:43.906Z,9.90
2019-04-11T00:37:59.311Z,9.80
2019-04-11T00:40:28.969Z,9.80
2019-04-11T00:42:58.819Z,9.90
2019-04-11T00:45:29.706Z,9.90
2019-04-11T00:47:59.533Z,9.80
2019-04-11T00:50:31.629Z,9.80
2019-04-11T00:53:01.374Z,9.80
2019-04-11T00:55:31.360Z,9.80
2019-04-11T00:58:01.292Z,9.70
2019-04-11T01:00:31.181Z,9.70
2019-04-11T01:03:00.016Z,9.70
2019-04-11T01:05:29.720Z,9.60
2019-04-11T01:07:59.590Z,9.70
2019-04-11T01:10:31.973Z,9.70
2019-04-11T01:13:00.830Z,9.70
2019-04-11T01:15:29.447Z,9.60
2019-04-11T01:17:58.052Z,9.60
2019-04-11T01:20:29.354Z,9.60
2019-04-11T01:22:58.467Z,9.60
2019-04-11T01:25:27.058Z,9.50
2019-04-11T01:27:58.479Z,9.50
2019-04-11T01:30:30.658Z,9.50
2019-04-11T01:33:00.291Z,9.50
2019-04-11T01:35:29.022Z,9.40
2019-04-11T01:37:57.848Z,9.40
2019-04-11T01:40:26.568Z,9.40
2019-04-11T01:42:55.497Z,9.40
2019-04-11T01:45:25.786Z,9.40
2019-04-11T01:47:59.534Z,9.30
2019-04-11T01:50:32.855Z,9.30
2019-04-11T01:53:00.567Z,9.30
2019-04-11T01:55:29.263Z,9.20
2019-04-11T01:57:58.255Z,9.30
2019-04-11T02:00:37.478Z,9.20
2019-04-11T02:03:08.841Z,9.20
2019-04-11T02:05:38.055Z,9.20
2019-04-11T02:08:07.100Z,9.20
2019-04-11T02:10:36.962Z,9.20
2019-04-11T02:13:05.868Z,9.20
2019-04-11T02:15:34.616Z,9.10
2019-04-11T02:18:03.373Z,9.10
2019-04-11T02:20:31.977Z,9.10
2019-04-11T02:23:02.557Z,9.10
2019-04-11T02:25:36.664Z,9.10
2019-04-11T02:28:06.653Z,9.10
2019-04-11T02:30:39.189Z,9.10
2019-04-11T02:33:09.396Z,9.10
2019-04-11T02:35:39.660Z,9.10
2019-04-11T02:38:09.505Z,9.20
2019-04-11T02:40:38.766Z,9.20
2019-04-11T02:43:09.199Z,9.10
2019-04-11T02:45:51.681Z,9.10
2019-04-11T02:48:10.078Z,9.10
2019-04-11T02:50:39.339Z,9.10
2019-04-11T02:53:09.659Z,9.10
2019-04-11T02:55:38.814Z,9.10
2019-04-11T02:58:08.094Z,9.10
2019-04-11T03:00:37.659Z,9.10
2019-04-11T03:03:08.491Z,9.10
2019-04-11T03:05:39.158Z,9.10
2019-04-11T03:08:11.529Z,9.00
2019-04-11T03:10:37.897Z,9.10
2019-04-11T03:13:08.263Z,9.10
2019-04-11T03:15:48.793Z,9.10
2019-04-11T03:18:10.053Z,9.00
2019-04-11T03:20:45.713Z,8.90
2019-04-11T03:23:10.795Z,8.90
2019-04-11T03:25:38.791Z,8.90
2019-04-11T03:28:14.103Z,8.90
2019-04-11T03:31:01.799Z,8.90
2019-04-11T03:34:09.559Z,8.90
2019-04-11T03:38:36.921Z,8.90
2019-04-11T03:41:00.591Z,8.90
2019-04-11T03:43:28.320Z,8.90
2019-04-11T03:46:01.879Z,8.90
2019-04-11T03:48:31.962Z,8.90
2019-04-11T03:50:44.866Z,8.80
2019-04-11T03:53:14.497Z,8.80
2019-04-11T03:55:43.956Z,8.80
2019-04-11T03:58:15.425Z,8.80
2019-04-11T04:00:50.395Z,8.80
2019-04-11T04:03:20.236Z,8.70
2019-04-11T04:05:49.346Z,8.70
2019-04-11T04:08:22.542Z,8.70
2019-04-11T04:11:06.072Z,8.80
2019-04-11T04:13:37.479Z,8.80
2019-04-11T04:16:18.751Z,8.80
2019-04-11T04:18:58.456Z,8.80
2019-04-11T04:21:47.027Z,8.80
2019-04-11T04:24:34.848Z,8.80
2019-04-11T04:27:02.103Z,8.80
2019-04-11T04:29:32.385Z,8.80
2019-04-11T04:32:02.837Z,8.70
2019-04-11T04:34:31.723Z,8.70
2019-04-11T04:37:00.812Z,8.60
2019-04-11T04:39:34.309Z,8.50
2019-04-11T04:42:08.864Z,8.40
2019-04-11T04:44:33.665Z,8.30
2019-04-11T04:47:13.638Z,8.30
2019-04-11T04:49:36.424Z,8.30
2019-04-11T04:52:09.410Z,8.30
2019-04-11T04:54:40.999Z,8.30
2019-04-11T04:57:13.117Z,8.30
2019-04-11T04:59:42.713Z,8.30
2019-04-11T05:02:12.846Z,8.30
2019-04-11T05:04:45.868Z,8.20
2019-04-11T05:07:19.562Z,8.30
2019-04-11T05:09:50.321Z,8.30
2019-04-11T05:12:20.374Z,8.30
2019-04-11T05:14:49.873Z,8.20
2019-04-11T05:17:19.255Z,8.10
2019-04-11T05:19:48.781Z,8.10
2019-04-11T05:22:17.369Z,8.00
2019-04-11T05:24:45.936Z,7.80
2019-04-11T05:27:14.701Z,7.50
2019-04-11T05:29:43.933Z,7.30
2019-04-11T05:32:13.358Z,7.40
2019-04-11T05:34:41.998Z,7.50
2019-04-11T05:37:11.111Z,7.40
2019-04-11T05:39:42.470Z,7.20
2019-04-11T05:42:11.308Z,7.10
2019-04-11T05:44:40.775Z,7.00
2019-04-11T05:47:14.678Z,7.00
2019-04-11T05:49:43.461Z,6.90
2019-04-11T05:52:17.788Z,6.60
2019-04-11T05:54:52.576Z,6.40
2019-04-11T05:57:30.291Z,6.50
2019-04-11T05:59:59.233Z,6.30
2019-04-11T06:02:29.473Z,6.30
2019-04-11T06:05:02.860Z,6.20
2019-04-11T06:07:33.231Z,6.30
2019-04-11T06:10:17.742Z,6.30
2019-04-11T06:12:48.084Z,6.50
2019-04-11T06:15:24.926Z,6.70
2019-04-11T06:17:54.547Z,6.60
2019-04-11T06:20:31.298Z,6.60
2019-04-11T06:23:19.481Z,6.50
2019-04-11T06:26:09.194Z,6.60
2019-04-11T06:28:39.788Z,6.30
2019-04-11T06:31:26.859Z,6.40
2019-04-11T06:33:57.055Z,6.40
2019-04-11T06:36:33.805Z,6.70
2019-04-11T06:39:05.054Z,6.90
2019-04-11T06:41:38.859Z,6.70
2019-04-11T06:44:21.645Z,7.00
2019-04-11T06:47:00.561Z,7.20
2019-04-11T06:49:34.188Z,7.50
2019-04-11T06:52:04.830Z,7.60
2019-04-11T06:54:35.051Z,7.70
2019-04-11T06:57:05.516Z,7.90
2019-04-11T06:59:38.676Z,8.00
2019-04-11T07:02:19.084Z,8.00
2019-04-11T07:04:47.542Z,8.00
2019-04-11T07:07:18.523Z,7.80
2019-04-11T07:09:51.507Z,7.90
2019-04-11T07:12:30.784Z,7.90
2019-04-11T07:15:16.550Z,7.80
2019-04-11T07:18:07.479Z,7.90
2019-04-11T07:20:45.917Z,7.80
2019-04-11T07:23:32.950Z,7.80
2019-04-11T07:26:21.362Z,7.90
2019-04-11T07:28:52.270Z,8.20
2019-04-11T07:31:40.150Z,8.10
2019-04-11T07:34:33.134Z,8.20
2019-04-11T07:37:19.104Z,8.20
2019-04-11T07:40:05.865Z,8.30
2019-04-11T07:42:40.971Z,8.10
2019-04-11T07:45:20.950Z,8.10
2019-04-11T07:48:08.738Z,8.20
2019-04-11T07:50:37.408Z,8.30
2019-04-11T07:53:08.668Z,8.40
2019-04-11T07:55:42.222Z,8.40
2019-04-11T07:58:21.647Z,8.50
2019-04-11T08:01:08.258Z,8.60
2019-04-11T08:03:41.177Z,8.60
2019-04-11T08:06:17.926Z,8.60
2019-04-11T08:09:02.844Z,8.60
2019-04-11T08:11:33.867Z,8.50
2019-04-11T08:14:11.224Z,8.60
2019-04-11T08:16:59.577Z,8.60
2019-04-11T08:19:30.943Z,8.70
2019-04-11T08:22:16.963Z,8.80
2019-04-11T08:24:56.565Z,8.70
2019-04-11T08:27:29.852Z,8.70
2019-04-11T08:30:02.647Z,8.70
2019-04-11T08:32:51.856Z,8.70
2019-04-11T08:35:28.328Z,8.80
2019-04-11T08:38:04.530Z,8.80
2019-04-11T08:40:53.348Z,8.90
2019-04-11T08:43:26.929Z,8.80
2019-04-11T08:46:04.671Z,8.80
2019-04-11T08:48:51.385Z,8.70
2019-04-11T08:51:21.667Z,8.70
2019-04-11T08:54:09.139Z,8.70
2019-04-11T08:56:39.493Z,8.70
2019-04-11T08:59:13.351Z,8.70
2019-04-11T09:01:42.435Z,8.60
2019-04-11T09:04:25.955Z,8.70
2019-04-11T09:06:57.175Z,8.60
2019-04-11T09:09:45.544Z,8.70
2019-04-11T09:12:16.264Z,8.70
2019-04-11T09:15:02.561Z,8.70
2019-04-11T09:17:36.673Z,8.80
2019-04-11T09:20:21.434Z,8.80
2019-04-11T09:22:55.382Z,8.80
2019-04-11T09:25:40.831Z,8.90
2019-04-11T09:28:11.400Z,9.00
2019-04-11T09:30:45.201Z,9.00
2019-04-11T09:33:31.688Z,9.10
2019-04-11T09:36:01.924Z,9.10
2019-04-11T09:38:32.799Z,9.00
2019-04-11T09:41:18.555Z,9.00
2019-04-11T09:43:48.460Z,9.00
2019-04-11T09:46:36.769Z,9.10
2019-04-11T09:49:10.791Z,9.00
2019-04-11T09:51:44.694Z,9.00
2019-04-11T09:54:23.954Z,9.10
2019-04-11T09:57:12.259Z,9.10
2019-04-11T09:59:49.645Z,9.10
2019-04-11T10:02:36.476Z,9.10
2019-04-11T10:05:07.517Z,9.00
2019-04-11T10:07:54.479Z,9.10
2019-04-11T10:10:40.246Z,9.20
2019-04-11T10:13:09.436Z,9.20
2019-04-11T10:15:59.782Z,9.20
2019-04-11T10:18:44.369Z,9.20
2019-04-11T10:21:19.377Z,9.30
2019-04-11T10:23:56.748Z,9.40
2019-04-11T10:26:42.915Z,9.50
2019-04-11T10:29:30.387Z,9.40
2019-04-11T10:32:02.961Z,9.40
2019-04-11T10:34:48.214Z,9.50
2019-04-11T10:37:19.911Z,9.60
2019-04-11T10:39:53.546Z,9.70
2019-04-11T10:42:24.924Z,9.70
2019-04-11T10:44:58.713Z,9.80
2019-04-11T10:47:29.208Z,9.70
2019-04-11T10:50:15.336Z,9.70
2019-04-11T10:52:50.859Z,9.80
2019-04-11T10:55:17.783Z,9.90
2019-04-11T10:57:48.729Z,9.90
2019-04-11T11:00:22.912Z,9.90
2019-04-11T11:03:07.813Z,10.00
2019-04-11T11:05:51.387Z,10.00
2019-04-11T11:08:21.715Z,10.00
2019-04-11T11:10:52.380Z,10.00
2019-04-11T11:13:23.597Z,10.00
2019-04-11T11:15:53.393Z,10.10
2019-04-11T11:18:42.692Z,10.20
2019-04-11T11:20:58.801Z,10.20
2019-04-11T11:23:43.466Z,10.30
2019-04-11T11:26:23.315Z,10.30
2019-04-11T11:29:13.656Z,10.30
2019-04-11T11:31:42.779Z,10.30
2019-04-11T11:34:19.793Z,10.30
2019-04-11T11:36:50.449Z,10.30
2019-04-11T11:39:20.910Z,10.30
2019-04-11T11:42:08.271Z,10.40
2019-04-11T11:44:39.159Z,10.50
2019-04-11T11:47:27.896Z,10.50
2019-04-11T11:50:01.558Z,10.50
2019-04-11T11:52:33.298Z,10.50
2019-04-11T11:55:04.131Z,10.50
2019-04-11T11:57:37.126Z,10.40
2019-04-11T12:00:14.939Z,10.40
2019-04-11T12:02:58.997Z,10.40
2019-04-11T12:05:34.729Z,10.40
2019-04-11T12:08:20.333Z,10.40
2019-04-11T12:10:56.168Z,10.50
2019-04-11T12:13:32.628Z,10.50
2019-04-11T12:16:03.735Z,10.50
2019-04-11T12:18:51.853Z,10.50
2019-04-11T12:21:28.067Z,10.50
2019-04-11T12:24:17.599Z,10.40
2019-04-11T12:26:51.899Z,10.60
2019-04-11T12:29:36.063Z,10.60
2019-04-11T12:32:06.278Z,10.70
2019-04-11T12:34:45.366Z,10.70
2019-04-11T12:37:19.778Z,10.80
2019-04-11T12:39:51.994Z,10.80
2019-04-11T12:42:22.259Z,10.80
2019-04-11T12:45:08.214Z,10.80
2019-04-11T12:47:42.427Z,10.90
2019-04-11T12:50:13.130Z,10.90
2019-04-11T12:52:43.443Z,11.00
2019-04-11T12:55:30.373Z,11.10
2019-04-11T12:58:16.322Z,11.20
2019-04-11T13:01:02.615Z,11.20
2019-04-11T13:03:46.036Z,11.00
2019-04-11T13:06:35.745Z,10.90
2019-04-11T13:09:17.453Z,10.80
2019-04-11T13:12:02.691Z,10.80
2019-04-11T13:14:41.346Z,10.80
2019-04-11T13:17:17.290Z,10.80
2019-04-11T13:20:04.835Z,10.80
2019-04-11T13:22:36.125Z,10.70
2019-04-11T13:25:24.228Z,10.60
2019-04-11T13:27:54.519Z,10.70
2019-04-11T13:30:38.753Z,10.80
2019-04-11T13:33:08.548Z,10.90
2019-04-11T13:35:42.131Z,11.10
2019-04-11T13:38:15.319Z,11.20
2019-04-11T13:40:45.621Z,11.30
2019-04-11T13:43:32.671Z,11.50
2019-04-11T13:46:18.998Z,11.40
2019-04-11T13:49:03.771Z,11.30
2019-04-11T13:51:33.988Z,11.50
2019-04-11T13:54:23.692Z,11.40
2019-04-11T13:57:09.638Z,11.30
2019-04-11T13:59:42.673Z,11.20
2019-04-11T14:02:15.925Z,11.30
2019-04-11T14:04:49.454Z,11.40
2019-04-11T14:07:23.684Z,11.50
2019-04-11T14:10:09.220Z,11.60
2019-04-11T14:12:39.393Z,11.70
2019-04-11T14:15:29.554Z,11.80
2019-04-11T14:18:16.108Z,12.00
2019-04-11T14:21:06.200Z,12.10
2019-04-11T14:23:47.905Z,12.20
2019-04-11T14:26:18.626Z,12.30
2019-04-11T14:28:49.326Z,12.60
2019-04-11T14:31:25.550Z,12.80
2019-04-11T14:33:56.122Z,12.80
2019-04-11T14:36:42.774Z,12.50
2019-04-11T14:39:13.010Z,12.10
2019-04-11T14:41:55.224Z,12.00
2019-04-11T14:44:26.999Z,12.00
2019-04-11T14:46:57.280Z,11.90
2019-04-11T14:49:27.127Z,12.00
2019-04-11T14:52:03.106Z,12.00
2019-04-11T14:54:33.342Z,11.90
2019-04-11T14:57:06.387Z,11.80
2019-04-11T14:59:39.622Z,11.80
2019-04-11T15:02:13.237Z,11.80
2019-04-11T15:04:49.464Z,12.00
2019-04-11T15:07:28.219Z,12.30
2019-04-11T15:10:00.939Z,12.60
2019-04-11T15:12:31.913Z,12.40
2019-04-11T15:15:10.700Z,12.20
2019-04-11T15:17:42.454Z,12.30
2019-04-11T15:20:14.469Z,12.40
2019-04-11T15:22:47.649Z,12.50
2019-04-11T15:25:20.876Z,12.40
2019-04-11T15:28:03.641Z,12.50
2019-04-11T15:30:50.159Z,12.60
2019-04-11T15:33:24.699Z,12.80
2019-04-11T15:35:57.697Z,12.70
2019-04-11T15:38:29.651Z,12.70
2019-04-11T15:40:59.892Z,12.70
2019-04-11T15:43:46.662Z,12.80
2019-04-11T15:46:23.184Z,13.00
2019-04-11T15:49:19.938Z,12.70
2019-04-11T15:51:41.465Z,12.40
2019-04-11T15:54:11.754Z,12.30
2019-04-11T15:56:45.350Z,12.10
2019-04-11T15:59:15.553Z,11.90
2019-04-11T16:02:01.875Z,12.00
2019-04-11T16:04:32.171Z,12.00
2019-04-11T16:07:13.585Z,12.10
2019-04-11T16:09:44.042Z,12.20
2019-04-11T16:12:16.318Z,12.40
2019-04-11T16:14:44.580Z,12.60
2019-04-11T16:17:29.354Z,13.00
2019-04-11T16:19:59.521Z,13.10
2019-04-11T16:22:46.742Z,13.20
2019-04-11T16:25:17.609Z,13.00
2019-04-11T16:27:50.783Z,12.90
2019-04-11T16:30:23.392Z,12.70
2019-04-11T16:33:14.580Z,12.60
2019-04-11T16:35:56.826Z,12.60
2019-04-11T16:38:29.658Z,12.20
2019-04-11T16:41:17.262Z,12.30
2019-04-11T16:43:47.470Z,12.40
2019-04-11T16:46:34.028Z,12.40
2019-04-11T16:49:02.628Z,12.20
2019-04-11T16:51:31.465Z,12.10
2019-04-11T16:54:04.554Z,12.20
2019-04-11T16:56:36.229Z,12.20
2019-04-11T16:59:04.881Z,12.10
2019-04-11T17:01:33.426Z,12.30
2019-04-11T17:04:02.037Z,12.40
2019-04-11T17:06:32.262Z,12.40
2019-04-11T17:09:08.300Z,12.60
2019-04-11T17:11:39.267Z,12.60
2019-04-11T17:14:07.852Z,12.80
2019-04-11T17:16:36.515Z,12.90
2019-04-11T17:19:06.282Z,12.80
2019-04-11T17:21:43.008Z,12.80
2019-04-11T17:24:19.379Z,12.50
2019-04-11T17:26:48.277Z,12.30
2019-04-11T17:29:20.307Z,12.30
2019-04-11T17:31:48.903Z,12.30
2019-04-11T17:34:17.506Z,12.10
2019-04-11T17:36:46.169Z,12.00
2019-04-11T17:39:15.059Z,11.90
2019-04-11T17:41:46.322Z,11.80
2019-04-11T17:44:14.919Z,11.80
2019-04-11T17:46:43.845Z,11.80
2019-04-11T17:49:15.435Z,11.80
2019-04-11T17:51:55.683Z,11.70
2019-04-11T17:54:20.128Z,11.70
2019-04-11T17:56:48.855Z,11.50
2019-04-11T17:59:17.537Z,11.40
2019-04-11T18:01:46.161Z,11.30
2019-04-11T18:04:14.841Z,11.10
2019-04-11T18:06:51.846Z,11.00
2019-04-11T18:09:25.582Z,11.00
2019-04-11T18:11:55.903Z,11.00
2019-04-11T18:14:22.387Z,11.00
2019-04-11T18:16:51.631Z,10.90
2019-04-11T18:19:24.111Z,10.80
2019-04-11T18:21:52.850Z,10.80
2019-04-11T18:24:22.353Z,10.80
2019-04-11T18:26:51.930Z,10.70
2019-04-11T18:29:23.015Z,10.70
2019-04-11T18:31:51.640Z,10.60
2019-04-11T18:34:20.363Z,10.60
2019-04-11T18:36:51.994Z,10.60
2019-04-11T18:39:28.607Z,10.60
2019-04-11T18:42:01.910Z,10.50
2019-04-11T18:44:31.752Z,10.50
2019-04-11T18:47:03.698Z,10.50
2019-04-11T18:49:32.360Z,10.50
2019-04-11T18:52:01.223Z,10.50
2019-04-11T18:54:29.828Z,10.40
2019-04-11T18:57:02.749Z,10.40
2019-04-11T18:59:35.799Z,10.40
2019-04-11T19:02:04.725Z,10.30
2019-04-11T19:04:36.038Z,10.20
2019-04-11T19:07:06.230Z,10.20
2019-04-11T19:09:34.870Z,10.20
2019-04-11T19:12:22.355Z,10.20
2019-04-11T19:14:40.957Z,10.20
2019-04-11T19:17:09.597Z,10.20
2019-04-11T19:19:40.969Z,10.10
2019-04-11T19:22:09.667Z,10.10
2019-04-11T19:24:41.779Z,10.10
2019-04-11T19:27:08.483Z,10.10
2019-04-11T19:29:38.885Z,10.10
2019-04-11T19:32:08.991Z,10.10
2019-04-11T19:34:39.204Z,10.10
2019-04-11T19:37:12.699Z,10.10
2019-04-11T19:39:46.771Z,10.10
2019-04-11T19:42:19.668Z,10.10
2019-04-11T19:44:49.645Z,10.10
2019-04-11T19:47:21.427Z,10.00
2019-04-11T19:49:50.155Z,10.00
2019-04-11T19:52:21.303Z,10.00
2019-04-11T19:54:49.944Z,10.00
2019-04-11T19:57:20.233Z,10.00
2019-04-11T19:59:48.819Z,10.00
2019-04-11T20:02:17.408Z,10.00
2019-04-11T20:04:46.677Z,10.00
2019-04-11T20:07:18.898Z,10.00
2019-04-11T20:09:47.510Z,9.90
2019-04-11T20:12:16.185Z,9.90
2019-04-11T20:14:46.358Z,9.90
2019-04-11T20:17:19.829Z,9.90
2019-04-11T20:20:00.925Z,9.90
2019-04-11T20:22:18.756Z,9.90
2019-04-11T20:24:51.779Z,9.90
2019-04-11T20:27:22.877Z,9.90
2019-04-11T20:29:55.079Z,9.90
2019-04-11T20:32:33.061Z,9.80
2019-04-11T20:35:09.410Z,9.80
2019-04-11T20:37:39.377Z,9.80
2019-04-11T20:40:06.450Z,9.80
2019-04-11T20:42:35.122Z,9.80
2019-04-11T20:45:07.554Z,9.70
2019-04-11T20:47:36.108Z,9.60
2019-04-11T20:50:07.738Z,9.60
2019-04-11T20:52:35.868Z,9.50
2019-04-11T20:55:08.909Z,9.20
2019-04-11T20:57:37.386Z,9.50
2019-04-11T21:00:07.543Z,9.40
2019-04-11T21:02:36.215Z,9.40
2019-04-11T21:05:05.614Z,9.40
2019-04-11T21:07:34.262Z,9.30
2019-04-11T21:10:03.974Z,9.30
2019-04-11T21:12:37.266Z,9.30
2019-04-11T21:15:13.553Z,9.20
2019-04-11T21:17:43.626Z,9.30
2019-04-11T21:20:15.239Z,9.20
2019-04-11T21:22:44.831Z,9.20
2019-04-11T21:25:13.461Z,9.20
2019-04-11T21:27:42.026Z,9.20
2019-04-11T21:30:11.157Z,9.30
2019-04-11T21:32:39.798Z,9.30
2019-04-11T21:35:08.499Z,9.30
2019-04-11T21:37:37.147Z,9.30
2019-04-11T21:40:07.158Z,9.20
2019-04-11T21:42:36.669Z,9.20
2019-04-11T21:45:06.875Z,9.20
2019-04-11T21:47:37.225Z,9.20
2019-04-11T21:50:09.649Z,9.20
2019-04-11T21:52:37.892Z,9.20
2019-04-11T21:55:06.783Z,9.20
2019-04-11T21:57:35.329Z,9.20
2019-04-11T22:00:09.611Z,9.20
2019-04-11T22:02:38.163Z,9.20
2019-04-11T22:05:06.963Z,9.20
2019-04-11T22:07:37.158Z,9.20
2019-04-11T22:10:08.011Z,9.20
2019-04-11T22:12:40.539Z,9.10
2019-04-11T22:15:17.883Z,9.10
2019-04-11T22:17:47.243Z,9.10
2019-04-11T22:20:16.671Z,9.10
2019-04-11T22:22:45.927Z,9.10
2019-04-11T22:25:14.683Z,9.10
2019-04-11T22:27:43.333Z,9.10
2019-04-11T22:30:13.231Z,9.10
2019-04-11T22:32:43.422Z,9.00
2019-04-11T22:35:12.220Z,9.00
2019-04-11T22:37:46.569Z,9.00
2019-04-11T22:40:15.157Z,9.00
2019-04-11T22:42:43.701Z,9.00
2019-04-11T22:45:12.419Z,9.00
2019-04-11T22:47:41.021Z,9.00
2019-04-11T22:50:10.606Z,9.00
2019-04-11T22:52:39.885Z,9.00
2019-04-11T22:55:11.252Z,8.90
2019-04-11T22:57:40.845Z,8.90
2019-04-11T23:00:14.925Z,8.90
2019-04-11T23:02:42.581Z,8.90
2019-04-11T23:05:11.281Z,8.90
2019-04-11T23:07:39.830Z,8.90
2019-04-11T23:10:11.448Z,8.90
2019-04-11T23:12:40.012Z,8.80
2019-04-11T23:15:08.706Z,8.80
2019-04-11T23:17:38.105Z,8.80
2019-04-11T23:20:11.898Z,8.80
2019-04-11T23:22:42.841Z,8.70
2019-04-11T23:25:10.469Z,8.70
2019-04-11T23:27:40.572Z,8.70
2019-04-11T23:30:12.378Z,8.70
2019-04-11T23:32:40.966Z,8.80
2019-04-11T23:35:12.317Z,8.70
2019-04-11T23:37:51.175Z,8.70
2019-04-11T23:40:21.745Z,8.70
2019-04-11T23:42:52.054Z,8.70
2019-04-11T23:45:24.982Z,8.70
2019-04-11T23:47:54.426Z,8.60
2019-04-11T23:50:25.234Z,8.60
2019-04-11T23:52:57.063Z,8.60
2019-04-11T23:55:23.474Z,8.60
2019-04-11T23:57:52.047Z,8.50
